Anita — DEIC — position and weather

sailwx.info

Track history (hours):
 
Tides and Currents Weather Stations Pressure Air Temp Water Temp Dewpoint Dewpoint Depression Visibility Wind Speed Wind Dir Waves Ship Positions

Anita

Last reported at 2017-Oct-09 10:09 UTC. Time now 2017-Oct-18 03:41 UTC.
Position N 38°01' E 015°37'.
Warning: this ship's position is 8 days out of date.

Length 16 m.

Type: Sailing vessel. MMSI: 211259990.

Date/timePositionNaut miles runAvg speedWind from/ knotsBaromVisibWave heightAir tempDewpointWater temp
2017-Oct-09 10:09N 38°01' E 015°37'2 5.1
2017-Oct-09 09:49N 38°03' E 015°37'2 5.1
2017-Oct-09 09:27N 38°05' E 015°37'2 5.0
2017-Oct-09 09:00N 38°07' E 015°38'3 5.1
2017-Oct-09 08:30N 38°09' E 015°38'3 5.8
2017-Oct-09 08:00N 38°12' E 015°38'2 4.2
2017-Oct-09 07:30N 38°14' E 015°39'3 5.3
2017-Oct-09 06:59N 38°17' E 015°39'78 5.2
2017-Oct-08 16:00N 38°12' E 014°00'3 5.9
2017-Oct-08 15:30N 38°12' E 013°57'3 5.6
2017-Oct-08 14:59N 38°11' E 013°53'2 3.6
2017-Oct-08 14:30N 38°11' E 013°51'2 3.9
2017-Oct-08 14:01N 38°11' E 013°48'2 4.0
2017-Oct-08 13:30N 38°10' E 013°46'2 4.4
2017-Oct-08 13:00N 38°10' E 013°43'2 4.5
2017-Oct-08 12:30N 38°09' E 013°40'3 5.7
2017-Oct-08 11:59N 38°09' E 013°36'4 6.2
2017-Oct-08 11:25N 38°08' E 013°32'3 6.6
2017-Oct-08 11:00N 38°08' E 013°29'3 5.7
2017-Oct-08 10:31N 38°08' E 013°25'2 0.1
2017-Oct-06 20:30N 38°07' E 013°22'1 1.2
2017-Oct-06 20:00N 38°08' E 013°23'  
2017-Oct-01 10:29N 37°33' W 000°45'  
Track history (hours):
 
Tides and Currents Weather Stations Pressure Air Temp Water Temp Dewpoint Dewpoint Depression Visibility Wind Speed Wind Dir Waves Ship Positions

Anita

Last reported at 2017-Oct-09 10:09 UTC. Time now 2017-Oct-18 03:41 UTC.
Position N 38°01' E 015°37'.
Warning: this ship's position is 8 days out of date.

Length 16 m.

Type: Sailing vessel. MMSI: 211259990.

Date/timePositionNaut miles runAvg speedWind from/ knotsBaromVisibWave heightAir tempDewpointWater temp
2017-Oct-09 10:09N 38°01' E 015°37'2 5.1
2017-Oct-09 09:49N 38°03' E 015°37'2 5.1
2017-Oct-09 09:27N 38°05' E 015°37'2 5.0
2017-Oct-09 09:00N 38°07' E 015°38'3 5.1
2017-Oct-09 08:30N 38°09' E 015°38'3 5.8
2017-Oct-09 08:00N 38°12' E 015°38'2 4.2
2017-Oct-09 07:30N 38°14' E 015°39'3 5.3
2017-Oct-09 06:59N 38°17' E 015°39'78 5.2
2017-Oct-08 16:00N 38°12' E 014°00'3 5.9
2017-Oct-08 15:30N 38°12' E 013°57'3 5.6
2017-Oct-08 14:59N 38°11' E 013°53'2 3.6
2017-Oct-08 14:30N 38°11' E 013°51'2 3.9
2017-Oct-08 14:01N 38°11' E 013°48'2 4.0
2017-Oct-08 13:30N 38°10' E 013°46'2 4.4
2017-Oct-08 13:00N 38°10' E 013°43'2 4.5
2017-Oct-08 12:30N 38°09' E 013°40'3 5.7
2017-Oct-08 11:59N 38°09' E 013°36'4 6.2
2017-Oct-08 11:25N 38°08' E 013°32'3 6.6
2017-Oct-08 11:00N 38°08' E 013°29'3 5.7
2017-Oct-08 10:31N 38°08' E 013°25'2 0.1
2017-Oct-06 20:30N 38°07' E 013°22'1 1.2
2017-Oct-06 20:00N 38°08' E 013°23'  
2017-Oct-01 10:29N 37°33' W 000°45'  

Dump ship's entire track history